sensor_id;sensor_type;location;lat;lon;timestamp;pressure;altitude;pressure_sealevel;temperature;humidity
28181;BME280;15464;50.988;10.318;2023-04-23T00:01:58;98126.22;;;13.77;71.41
28181;BME280;15464;50.988;10.318;2023-04-23T00:04:25;98125.53;;;13.74;72.71
28181;BME280;15464;50.988;10.318;2023-04-23T00:06:54;98117.59;;;13.66;73.23
28181;BME280;15464;50.988;10.318;2023-04-23T00:09:21;98114.72;;;13.68;72.78
28181;BME280;15464;50.988;10.318;2023-04-23T00:11:49;98119.94;;;13.61;73.64
28181;BME280;15464;50.988;10.318;2023-04-23T00:14:16;98120.75;;;13.62;73.59
28181;BME280;15464;50.988;10.318;2023-04-23T00:16:43;98117.44;;;13.60;74.08
28181;BME280;15464;50.988;10.318;2023-04-23T00:19:10;98124.91;;;13.56;74.88
28181;BME280;15464;50.988;10.318;2023-04-23T00:21:36;98125.59;;;13.58;73.89
28181;BME280;15464;50.988;10.318;2023-04-23T00:24:03;98124.09;;;13.56;74.70
28181;BME280;15464;50.988;10.318;2023-04-23T00:26:30;98124.28;;;13.54;75.00
28181;BME280;15464;50.988;10.318;2023-04-23T00:28:56;98119.63;;;13.48;76.01
28181;BME280;15464;50.988;10.318;2023-04-23T00:31:23;98123.59;;;13.52;74.96
28181;BME280;15464;50.988;10.318;2023-04-23T00:33:52;98123.28;;;13.47;76.16
28181;BME280;15464;50.988;10.318;2023-04-23T00:36:19;98128.09;;;13.44;76.77
28181;BME280;15464;50.988;10.318;2023-04-23T00:38:46;98119.63;;;13.40;77.54
28181;BME280;15464;50.988;10.318;2023-04-23T00:41:14;98122.97;;;13.34;78.20
28181;BME280;15464;50.988;10.318;2023-04-23T00:43:40;98118.16;;;13.21;80.07
28181;BME280;15464;50.988;10.318;2023-04-23T00:46:07;98120.66;;;13.23;79.73
28181;BME280;15464;50.988;10.318;2023-04-23T00:48:35;98119.66;;;13.24;80.21
28181;BME280;15464;50.988;10.318;2023-04-23T00:51:04;98116.31;;;13.14;82.57
28181;BME280;15464;50.988;10.318;2023-04-23T00:53:32;98114.97;;;13.02;85.18
28181;BME280;15464;50.988;10.318;2023-04-23T00:56:01;98121.28;;;13.01;85.44
28181;BME280;15464;50.988;10.318;2023-04-23T00:58:30;98118.28;;;12.96;84.99
28181;BME280;15464;50.988;10.318;2023-04-23T01:00:57;98119.28;;;13.03;84.08
28181;BME280;15464;50.988;10.318;2023-04-23T01:03:25;98116.13;;;12.91;86.37
28181;BME280;15464;50.988;10.318;2023-04-23T01:05:52;98119.97;;;12.97;84.40
28181;BME280;15464;50.988;10.318;2023-04-23T01:08:20;98112.28;;;12.93;86.45
28181;BME280;15464;50.988;10.318;2023-04-23T01:10:48;98110.81;;;12.91;86.16
28181;BME280;15464;50.988;10.318;2023-04-23T01:13:15;98112.66;;;12.99;84.35
28181;BME280;15464;50.988;10.318;2023-04-23T01:15:43;98114.63;;;12.88;86.89
28181;BME280;15464;50.988;10.318;2023-04-23T01:18:11;98113.97;;;12.86;86.83
28181;BME280;15464;50.988;10.318;2023-04-23T01:20:38;98117.94;;;12.66;90.96
28181;BME280;15464;50.988;10.318;2023-04-23T01:23:05;98104.97;;;12.71;88.42
28181;BME280;15464;50.988;10.318;2023-04-23T01:25:32;98109.63;;;12.77;87.67
28181;BME280;15464;50.988;10.318;2023-04-23T01:27:59;98107.97;;;12.76;87.63
28181;BME280;15464;50.988;10.318;2023-04-23T01:30:26;98104.31;;;12.61;91.71
28181;BME280;15464;50.988;10.318;2023-04-23T01:32:56;98105.94;;;12.62;89.93
28181;BME280;15464;50.988;10.318;2023-04-23T01:35:23;98106.59;;;12.56;91.22
28181;BME280;15464;50.988;10.318;2023-04-23T01:37:52;98115.94;;;12.60;89.52
28181;BME280;15464;50.988;10.318;2023-04-23T01:40:20;98102.28;;;12.63;89.96
28181;BME280;15464;50.988;10.318;2023-04-23T01:42:47;98103.66;;;12.67;89.00
28181;BME280;15464;50.988;10.318;2023-04-23T01:45:15;98106.47;;;12.66;90.08
28181;BME280;15464;50.988;10.318;2023-04-23T01:47:45;98099.47;;;12.65;89.07
28181;BME280;15464;50.988;10.318;2023-04-23T01:50:13;98105.13;;;12.70;88.62
28181;BME280;15464;50.988;10.318;2023-04-23T01:52:40;98106.13;;;12.69;89.72
28181;BME280;15464;50.988;10.318;2023-04-23T01:55:07;98103.09;;;12.56;90.85
28181;BME280;15464;50.988;10.318;2023-04-23T01:57:35;98107.28;;;12.58;89.67
28181;BME280;15464;50.988;10.318;2023-04-23T02:00:04;98109.63;;;12.61;88.63
28181;BME280;15464;50.988;10.318;2023-04-23T02:02:34;98107.63;;;12.63;87.00
28181;BME280;15464;50.988;10.318;2023-04-23T02:05:02;98104.47;;;12.60;88.04
28181;BME280;15464;50.988;10.318;2023-04-23T02:07:33;98108.28;;;12.57;89.30
28181;BME280;15464;50.988;10.318;2023-04-23T02:10:01;98112.22;;;12.37;94.74
28181;BME280;15464;50.988;10.318;2023-04-23T02:12:27;98114.50;;;12.16;98.63
28181;BME280;15464;50.988;10.318;2023-04-23T02:14:54;98111.53;;;12.27;95.60
28181;BME280;15464;50.988;10.318;2023-04-23T02:17:21;98110.88;;;12.33;95.55
28181;BME280;15464;50.988;10.318;2023-04-23T02:19:50;98111.53;;;12.27;97.11
28181;BME280;15464;50.988;10.318;2023-04-23T02:22:17;98111.56;;;12.35;94.95
28181;BME280;15464;50.988;10.318;2023-04-23T02:24:44;98111.41;;;12.36;94.27
28181;BME280;15464;50.988;10.318;2023-04-23T02:27:12;98112.22;;;12.37;95.45
28181;BME280;15464;50.988;10.318;2023-04-23T02:29:39;98107.72;;;12.37;93.75
28181;BME280;15464;50.988;10.318;2023-04-23T02:32:07;98106.91;;;12.45;91.86
28181;BME280;15464;50.988;10.318;2023-04-23T02:34:34;98110.75;;;12.42;94.41
28181;BME280;15464;50.988;10.318;2023-04-23T02:37:01;98117.41;;;12.46;92.38
28181;BME280;15464;50.988;10.318;2023-04-23T02:39:30;98113.22;;;12.44;93.21
28181;BME280;15464;50.988;10.318;2023-04-23T02:41:57;98111.59;;;12.43;94.27
28181;BME280;15464;50.988;10.318;2023-04-23T02:44:24;98109.59;;;12.45;92.52
28181;BME280;15464;50.988;10.318;2023-04-23T02:46:51;98108.59;;;12.46;91.15
28181;BME280;15464;50.988;10.318;2023-04-23T02:49:18;98111.25;;;12.46;92.03
28181;BME280;15464;50.988;10.318;2023-04-23T02:51:45;98109.94;;;12.42;93.11
28181;BME280;15464;50.988;10.318;2023-04-23T02:56:39;98107.91;;;12.44;91.36
28181;BME280;15464;50.988;10.318;2023-04-23T02:59:06;98108.94;;;12.43;93.20
28181;BME280;15464;50.988;10.318;2023-04-23T03:01:33;98104.06;;;12.38;93.73
28181;BME280;15464;50.988;10.318;2023-04-23T03:04:00;98104.59;;;12.42;93.92
28181;BME280;15464;50.988;10.318;2023-04-23T03:06:27;98097.28;;;12.44;93.64
28181;BME280;15464;50.988;10.318;2023-04-23T03:08:54;98111.59;;;12.43;94.11
28181;BME280;15464;50.988;10.318;2023-04-23T03:11:21;98107.91;;;12.44;92.35
28181;BME280;15464;50.988;10.318;2023-04-23T03:13:48;98110.56;;;12.44;92.32
28181;BME280;15464;50.988;10.318;2023-04-23T03:16:15;98107.06;;;12.43;92.68
28181;BME280;15464;50.988;10.318;2023-04-23T03:18:42;98116.91;;;12.43;93.26
28181;BME280;15464;50.988;10.318;2023-04-23T03:21:09;98111.25;;;12.46;92.88
28181;BME280;15464;50.988;10.318;2023-04-23T03:23:35;98110.91;;;12.41;96.51
28181;BME280;15464;50.988;10.318;2023-04-23T03:26:02;98112.53;;;12.26;98.35
28181;BME280;15464;50.988;10.318;2023-04-23T03:28:30;98111.53;;;12.27;97.63
28181;BME280;15464;50.988;10.318;2023-04-23T03:30:56;98109.56;;;12.29;96.11
28181;BME280;15464;50.988;10.318;2023-04-23T03:33:23;98109.22;;;12.32;96.73
28181;BME280;15464;50.988;10.318;2023-04-23T03:35:50;98107.91;;;12.36;95.57
28181;BME280;15464;50.988;10.318;2023-04-23T03:38:17;98114.53;;;12.32;95.63
28181;BME280;15464;50.988;10.318;2023-04-23T03:40:43;98110.69;;;12.26;96.66
28181;BME280;15464;50.988;10.318;2023-04-23T03:43:10;98119.13;;;12.13;98.60
28181;BME280;15464;50.988;10.318;2023-04-23T03:45:37;98112.81;;;12.15;97.99
28181;BME280;15464;50.988;10.318;2023-04-23T03:48:04;98115.25;;;12.00;100.00
28181;BME280;15464;50.988;10.318;2023-04-23T03:50:31;98113.56;;;11.91;100.00
28181;BME280;15464;50.988;10.318;2023-04-23T03:53:00;98120.50;;;11.58;100.00
28181;BME280;15464;50.988;10.318;2023-04-23T03:55:26;98115.53;;;11.63;100.00
28181;BME280;15464;50.988;10.318;2023-04-23T03:57:53;98117.16;;;11.74;100.00
28181;BME280;15464;50.988;10.318;2023-04-23T04:00:20;98122.59;;;11.72;100.00
28181;BME280;15464;50.988;10.318;2023-04-23T04:02:47;98124.50;;;11.62;100.00
28181;BME280;15464;50.988;10.318;2023-04-23T04:05:14;98119.19;;;11.62;100.00
28181;BME280;15464;50.988;10.318;2023-04-23T04:07:41;98114.25;;;11.67;100.00
28181;BME280;15464;50.988;10.318;2023-04-23T04:10:08;98111.13;;;11.71;100.00
28181;BME280;15464;50.988;10.318;2023-04-23T04:12:35;98121.00;;;11.79;100.00
28181;BME280;15464;50.988;10.318;2023-04-23T04:15:03;98128.31;;;11.85;100.00
28181;BME280;15464;50.988;10.318;2023-04-23T04:17:30;98125.81;;;11.84;100.00
28181;BME280;15464;50.988;10.318;2023-04-23T04:19:57;98131.97;;;11.84;100.00
28181;BME280;15464;50.988;10.318;2023-04-23T04:22:23;98135.94;;;11.80;100.00
28181;BME280;15464;50.988;10.318;2023-04-23T04:24:50;98129.03;;;11.69;100.00
28181;BME280;15464;50.988;10.318;2023-04-23T04:27:18;98134.00;;;11.64;100.00
28181;BME280;15464;50.988;10.318;2023-04-23T04:29:44;98134.34;;;11.69;100.00
28181;BME280;15464;50.988;10.318;2023-04-23T04:32:11;98132.59;;;11.78;100.00
28181;BME280;15464;50.988;10.318;2023-04-23T04:34:39;98137.91;;;11.78;100.00
28181;BME280;15464;50.988;10.318;2023-04-23T04:37:06;98143.84;;;11.72;100.00
28181;BME280;15464;50.988;10.318;2023-04-23T04:39:33;98152.44;;;11.66;100.00
28181;BME280;15464;50.988;10.318;2023-04-23T04:41:59;98162.50;;;11.54;100.00
28181;BME280;15464;50.988;10.318;2023-04-23T04:44:28;98161.22;;;11.41;100.00
28181;BME280;15464;50.988;10.318;2023-04-23T04:46:56;98174.69;;;11.21;100.00
28181;BME280;15464;50.988;10.318;2023-04-23T04:49:23;98186.91;;;11.14;100.00
28181;BME280;15464;50.988;10.318;2023-04-23T04:51:49;98181.59;;;11.14;100.00
28181;BME280;15464;50.988;10.318;2023-04-23T04:54:16;98190.03;;;11.10;100.00
28181;BME280;15464;50.988;10.318;2023-04-23T04:56:43;98187.84;;;11.05;100.00
28181;BME280;15464;50.988;10.318;2023-04-23T04:59:10;98191.84;;;11.09;100.00
28181;BME280;15464;50.988;10.318;2023-04-23T05:01:36;98181.59;;;11.14;98.94
28181;BME280;15464;50.988;10.318;2023-04-23T05:04:03;98189.19;;;11.09;100.00
28181;BME280;15464;50.988;10.318;2023-04-23T05:06:30;98187.66;;;11.07;99.97
28181;BME280;15464;50.988;10.318;2023-04-23T05:08:58;98191.47;;;11.04;99.94
28181;BME280;15464;50.988;10.318;2023-04-23T05:11:25;98187.44;;;11.00;100.00
28181;BME280;15464;50.988;10.318;2023-04-23T05:13:51;98192.53;;;11.11;99.82
28181;BME280;15464;50.988;10.318;2023-04-23T05:16:18;98186.28;;;11.20;99.73
28181;BME280;15464;50.988;10.318;2023-04-23T05:18:45;98192.66;;;11.27;99.77
28181;BME280;15464;50.988;10.318;2023-04-23T05:21:14;98197.66;;;11.30;99.85
28181;BME280;15464;50.988;10.318;2023-04-23T05:23:41;98194.22;;;11.38;99.19
28181;BME280;15464;50.988;10.318;2023-04-23T05:26:07;98195.75;;;11.41;99.53
28181;BME280;15464;50.988;10.318;2023-04-23T05:28:35;98200.06;;;11.42;99.51
28181;BME280;15464;50.988;10.318;2023-04-23T05:31:02;98202.38;;;11.37;100.00
28181;BME280;15464;50.988;10.318;2023-04-23T05:33:28;98207.47;;;11.30;100.00
28181;BME280;15464;50.988;10.318;2023-04-23T05:36:04;98207.53;;;11.20;100.00
28181;BME280;15464;50.988;10.318;2023-04-23T05:38:31;98210.94;;;11.13;100.00
28181;BME280;15464;50.988;10.318;2023-04-23T05:40:58;98212.94;;;11.11;100.00
28181;BME280;15464;50.988;10.318;2023-04-23T05:43:25;98221.56;;;11.13;100.00
28181;BME280;15464;50.988;10.318;2023-04-23T05:45:52;98225.03;;;11.13;100.00
28181;BME280;15464;50.988;10.318;2023-04-23T05:48:19;98223.91;;;11.16;100.00
28181;BME280;15464;50.988;10.318;2023-04-23T05:50:45;98229.06;;;11.17;99.84
28181;BME280;15464;50.988;10.318;2023-04-23T05:53:14;98221.78;;;11.19;99.03
28181;BME280;15464;50.988;10.318;2023-04-23T05:55:41;98222.94;;;11.17;97.99
28181;BME280;15464;50.988;10.318;2023-04-23T05:58:07;98222.47;;;11.04;96.51
28181;BME280;15464;50.988;10.318;2023-04-23T06:00:34;98224.06;;;11.14;96.17
28181;BME280;15464;50.988;10.318;2023-04-23T06:03:02;98224.81;;;11.24;95.68
28181;BME280;15464;50.988;10.318;2023-04-23T06:05:29;98221.84;;;11.27;96.92
28181;BME280;15464;50.988;10.318;2023-04-23T06:07:56;98235.34;;;11.34;97.30
28181;BME280;15464;50.988;10.318;2023-04-23T06:10:23;98235.13;;;11.10;99.22
28181;BME280;15464;50.988;10.318;2023-04-23T06:12:50;98236.03;;;11.18;99.69
28181;BME280;15464;50.988;10.318;2023-04-23T06:15:19;98229.13;;;11.08;99.58
28181;BME280;15464;50.988;10.318;2023-04-23T06:17:46;98233.69;;;11.15;99.32
28181;BME280;15464;50.988;10.318;2023-04-23T06:20:13;98230.44;;;11.21;97.99
28181;BME280;15464;50.988;10.318;2023-04-23T06:22:39;98238.31;;;11.13;97.95
28181;BME280;15464;50.988;10.318;2023-04-23T06:25:06;98245.38;;;11.22;97.66
28181;BME280;15464;50.988;10.318;2023-04-23T06:27:33;98243.56;;;11.23;97.64
28181;BME280;15464;50.988;10.318;2023-04-23T06:30:00;98252.38;;;11.23;98.08
28181;BME280;15464;50.988;10.318;2023-04-23T06:32:26;98240.22;;;11.21;97.58
28181;BME280;15464;50.988;10.318;2023-04-23T06:34:53;98244.63;;;11.30;96.08
28181;BME280;15464;50.988;10.318;2023-04-23T06:37:27;98243.25;;;10.90;98.34
28181;BME280;15464;50.988;10.318;2023-04-23T06:39:57;98237.34;;;10.97;98.80
28181;BME280;15464;50.988;10.318;2023-04-23T06:42:24;98239.63;;;11.09;97.95
28181;BME280;15464;50.988;10.318;2023-04-23T06:44:51;98241.97;;;11.30;96.62
28181;BME280;15464;50.988;10.318;2023-04-23T06:47:18;98242.25;;;11.45;96.58
28181;BME280;15464;50.988;10.318;2023-04-23T06:49:45;98236.03;;;11.54;97.08
28181;BME280;15464;50.988;10.318;2023-04-23T06:52:12;98236.06;;;11.62;96.27
28181;BME280;15464;50.988;10.318;2023-04-23T06:54:38;98234.78;;;11.66;97.43
28181;BME280;15464;50.988;10.318;2023-04-23T06:57:05;98224.00;;;11.85;98.45
28181;BME280;15464;50.988;10.318;2023-04-23T06:59:32;98222.38;;;11.92;96.61
28181;BME280;15464;50.988;10.318;2023-04-23T07:01:59;98218.19;;;12.16;96.41
28181;BME280;15464;50.988;10.318;2023-04-23T07:04:26;98225.63;;;12.12;96.64
28181;BME280;15464;50.988;10.318;2023-04-23T07:06:53;98225.63;;;12.12;95.77
28181;BME280;15464;50.988;10.318;2023-04-23T07:09:20;98220.19;;;12.22;95.26
28181;BME280;15464;50.988;10.318;2023-04-23T07:11:48;98226.34;;;12.22;95.63
28181;BME280;15464;50.988;10.318;2023-04-23T07:14:16;98223.59;;;12.40;95.39
28181;BME280;15464;50.988;10.318;2023-04-23T07:16:43;98221.59;;;12.34;94.02
28181;BME280;15464;50.988;10.318;2023-04-23T07:19:09;98220.06;;;12.73;94.81
28181;BME280;15464;50.988;10.318;2023-04-23T07:21:36;98221.22;;;12.71;92.67
28181;BME280;15464;50.988;10.318;2023-04-23T07:24:03;98214.16;;;12.45;92.24
28181;BME280;15464;50.988;10.318;2023-04-23T07:26:33;98213.66;;;12.42;92.29
28181;BME280;15464;50.988;10.318;2023-04-23T07:28:59;98225.66;;;12.54;94.17
28181;BME280;15464;50.988;10.318;2023-04-23T07:31:27;98221.38;;;12.61;89.15
28181;BME280;15464;50.988;10.318;2023-04-23T07:33:54;98221.72;;;12.74;88.75
28181;BME280;15464;50.988;10.318;2023-04-23T07:36:21;98224.38;;;12.66;88.28
28181;BME280;15464;50.988;10.318;2023-04-23T07:38:48;98219.72;;;12.76;85.99
28181;BME280;15464;50.988;10.318;2023-04-23T07:41:16;98216.38;;;12.74;87.08
28181;BME280;15464;50.988;10.318;2023-04-23T07:43:43;98219.78;;;13.01;86.97
28181;BME280;15464;50.988;10.318;2023-04-23T07:46:10;98218.81;;;13.10;85.51
28181;BME280;15464;50.988;10.318;2023-04-23T07:48:37;98217.84;;;13.27;85.36
28181;BME280;15464;50.988;10.318;2023-04-23T07:51:05;98222.97;;;13.04;85.67
28181;BME280;15464;50.988;10.318;2023-04-23T07:53:32;98223.44;;;12.91;84.87
28181;BME280;15464;50.988;10.318;2023-04-23T07:55:59;98226.03;;;12.67;82.21
28181;BME280;15464;50.988;10.318;2023-04-23T07:58:26;98211.63;;;12.94;82.50
28181;BME280;15464;50.988;10.318;2023-04-23T08:00:53;98224.41;;;12.82;80.53
28181;BME280;15464;50.988;10.318;2023-04-23T08:03:19;98218.47;;;13.05;81.92
28181;BME280;15464;50.988;10.318;2023-04-23T08:05:47;98219.44;;;12.96;81.56
28181;BME280;15464;50.988;10.318;2023-04-23T08:08:13;98222.19;;;12.62;79.79
28181;BME280;15464;50.988;10.318;2023-04-23T08:10:40;98218.09;;;13.00;81.22
28181;BME280;15464;50.988;10.318;2023-04-23T08:13:07;98216.47;;;13.07;79.76
28181;BME280;15464;50.988;10.318;2023-04-23T08:15:34;98209.53;;;13.30;78.86
28181;BME280;15464;50.988;10.318;2023-04-23T08:18:01;98209.19;;;13.57;77.88
28181;BME280;15464;50.988;10.318;2023-04-23T08:20:28;98206.53;;;13.65;77.48
28181;BME280;15464;50.988;10.318;2023-04-23T08:22:55;98195.81;;;13.98;79.15
28181;BME280;15464;50.988;10.318;2023-04-23T08:25:22;98196.03;;;13.72;77.08
28181;BME280;15464;50.988;10.318;2023-04-23T08:27:48;98193.47;;;13.87;76.14
28181;BME280;15464;50.988;10.318;2023-04-23T08:30:15;98203.16;;;13.88;74.91
28181;BME280;15464;50.988;10.318;2023-04-23T08:32:42;98198.47;;;13.98;74.12
28181;BME280;15464;50.988;10.318;2023-04-23T08:35:09;98198.41;;;14.22;74.36
28181;BME280;15464;50.988;10.318;2023-04-23T08:37:35;98201.31;;;14.43;74.13
28181;BME280;15464;50.988;10.318;2023-04-23T08:40:05;98206.13;;;14.01;69.68
28181;BME280;15464;50.988;10.318;2023-04-23T08:42:42;98202.44;;;14.02;73.02
28181;BME280;15464;50.988;10.318;2023-04-23T08:45:11;98210.28;;;14.11;72.04
28181;BME280;15464;50.988;10.318;2023-04-23T08:47:39;98203.38;;;14.25;71.54
28181;BME280;15464;50.988;10.318;2023-04-23T08:50:11;98210.38;;;14.26;71.45
28181;BME280;15464;50.988;10.318;2023-04-23T08:52:46;98191.91;;;14.17;71.12
28181;BME280;15464;50.988;10.318;2023-04-23T08:55:14;98185.53;;;14.26;70.51
28181;BME280;15464;50.988;10.318;2023-04-23T08:57:41;98191.28;;;14.53;70.82
28181;BME280;15464;50.988;10.318;2023-04-23T09:00:10;98193.31;;;14.43;68.77
28181;BME280;15464;50.988;10.318;2023-04-23T09:02:44;98186.66;;;14.47;68.94
28181;BME280;15464;50.988;10.318;2023-04-23T09:05:11;98180.63;;;14.53;66.22
28181;BME280;15464;50.988;10.318;2023-04-23T09:07:39;98173.31;;;14.47;67.26
28181;BME280;15464;50.988;10.318;2023-04-23T09:10:07;98171.94;;;14.51;68.05
28181;BME280;15464;50.988;10.318;2023-04-23T09:12:35;98174.38;;;14.30;65.86
28181;BME280;15464;50.988;10.318;2023-04-23T09:15:03;98181.28;;;14.08;65.63
28181;BME280;15464;50.988;10.318;2023-04-23T09:17:44;98175.19;;;13.84;63.77
28181;BME280;15464;50.988;10.318;2023-04-23T09:20:13;98171.50;;;13.93;67.11
28181;BME280;15464;50.988;10.318;2023-04-23T09:22:42;98168.25;;;14.13;67.30
28181;BME280;15464;50.988;10.318;2023-04-23T09:25:15;98163.69;;;14.30;64.73
28181;BME280;15464;50.988;10.318;2023-04-23T09:27:43;98160.31;;;14.44;65.28
28181;BME280;15464;50.988;10.318;2023-04-23T09:30:11;98164.75;;;14.60;65.42
28181;BME280;15464;50.988;10.318;2023-04-23T09:32:39;98165.72;;;14.67;63.00
28181;BME280;15464;50.988;10.318;2023-04-23T09:35:09;98166.44;;;14.84;64.88
28181;BME280;15464;50.988;10.318;2023-04-23T09:37:40;98163.00;;;14.98;64.08
28181;BME280;15464;50.988;10.318;2023-04-23T09:40:12;98172.03;;;14.97;62.31
28181;BME280;15464;50.988;10.318;2023-04-23T09:42:39;98166.06;;;14.87;59.41
28181;BME280;15464;50.988;10.318;2023-04-23T09:45:08;98173.06;;;14.88;62.33
28181;BME280;15464;50.988;10.318;2023-04-23T09:47:43;98166.06;;;14.87;61.25
28181;BME280;15464;50.988;10.318;2023-04-23T09:50:13;98163.53;;;15.16;61.59
28181;BME280;15464;50.988;10.318;2023-04-23T09:52:41;98152.63;;;15.41;62.29
28181;BME280;15464;50.988;10.318;2023-04-23T09:55:08;98152.88;;;15.54;60.27
28181;BME280;15464;50.988;10.318;2023-04-23T09:57:36;98155.03;;;15.36;58.03
28181;BME280;15464;50.988;10.318;2023-04-23T10:00:15;98150.78;;;15.79;60.08
28181;BME280;15464;50.988;10.318;2023-04-23T10:02:46;98157.13;;;15.63;59.33
28181;BME280;15464;50.988;10.318;2023-04-23T10:05:19;98151.66;;;15.56;59.09
28181;BME280;15464;50.988;10.318;2023-04-23T10:07:54;98145.16;;;15.59;60.81
28181;BME280;15464;50.988;10.318;2023-04-23T10:10:22;98143.97;;;15.61;59.93
28181;BME280;15464;50.988;10.318;2023-04-23T10:12:51;98140.09;;;15.79;59.54
28181;BME280;15464;50.988;10.318;2023-04-23T10:15:24;98134.47;;;15.88;56.33
28181;BME280;15464;50.988;10.318;2023-04-23T10:17:52;98144.44;;;16.24;61.33
28181;BME280;15464;50.988;10.318;2023-04-23T10:20:21;98128.69;;;16.50;57.78
28181;BME280;15464;50.988;10.318;2023-04-23T10:22:48;98136.94;;;16.34;57.65
28181;BME280;15464;50.988;10.318;2023-04-23T10:25:15;98130.22;;;16.08;57.53
28181;BME280;15464;50.988;10.318;2023-04-23T10:27:46;98122.19;;;15.94;57.49
28181;BME280;15464;50.988;10.318;2023-04-23T10:30:19;98131.88;;;16.09;58.79
28181;BME280;15464;50.988;10.318;2023-04-23T10:32:48;98130.78;;;15.89;54.84
28181;BME280;15464;50.988;10.318;2023-04-23T10:35:15;98125.78;;;16.01;58.62
28181;BME280;15464;50.988;10.318;2023-04-23T10:37:43;98129.41;;;16.08;56.03
28181;BME280;15464;50.988;10.318;2023-04-23T10:40:13;98127.63;;;16.00;56.57
28181;BME280;15464;50.988;10.318;2023-04-23T10:42:42;98131.81;;;16.18;55.53
28181;BME280;15464;50.988;10.318;2023-04-23T10:45:17;98127.19;;;16.62;58.05
28181;BME280;15464;50.988;10.318;2023-04-23T10:47:47;98126.91;;;16.72;56.51
28181;BME280;15464;50.988;10.318;2023-04-23T10:50:19;98125.31;;;17.20;59.79
28181;BME280;15464;50.988;10.318;2023-04-23T10:52:48;98124.56;;;16.83;55.13
28181;BME280;15464;50.988;10.318;2023-04-23T10:55:21;98108.63;;;16.97;55.31
28181;BME280;15464;50.988;10.318;2023-04-23T10:58:03;98107.44;;;17.06;56.08
28181;BME280;15464;50.988;10.318;2023-04-23T11:00:56;98101.97;;;17.14;55.36
28181;BME280;15464;50.988;10.318;2023-04-23T11:03:31;98100.47;;;17.32;55.37
28181;BME280;15464;50.988;10.318;2023-04-23T11:06:08;98093.59;;;17.51;55.35
28181;BME280;15464;50.988;10.318;2023-04-23T11:08:50;98091.31;;;17.48;52.20
28181;BME280;15464;50.988;10.318;2023-04-23T11:11:18;98079.75;;;17.76;52.52
28181;BME280;15464;50.988;10.318;2023-04-23T11:13:50;98093.16;;;17.76;50.03
28181;BME280;15464;50.988;10.318;2023-04-23T11:16:21;98081.78;;;18.08;49.69
28181;BME280;15464;50.988;10.318;2023-04-23T11:19:00;98080.06;;;17.94;47.79
28181;BME280;15464;50.988;10.318;2023-04-23T11:26:58;98078.53;;;17.50;49.34
28181;BME280;15464;50.988;10.318;2023-04-23T11:29:27;98068.00;;;17.77;48.68
28181;BME280;15464;50.988;10.318;2023-04-23T11:31:54;98063.97;;;18.41;47.89
28181;BME280;15464;50.988;10.318;2023-04-23T11:34:24;98061.16;;;18.08;48.71
28181;BME280;15464;50.988;10.318;2023-04-23T11:36:53;98062.97;;;17.60;49.54
28181;BME280;15464;50.988;10.318;2023-04-23T11:39:22;98060.31;;;18.08;49.29
28181;BME280;15464;50.988;10.318;2023-04-23T11:41:50;98056.94;;;17.86;47.46
28181;BME280;15464;50.988;10.318;2023-04-23T11:44:19;98050.91;;;18.32;46.47
28181;BME280;15464;50.988;10.318;2023-04-23T11:46:47;98049.72;;;18.47;47.24
28181;BME280;15464;50.988;10.318;2023-04-23T11:49:16;98044.53;;;18.39;47.68
28181;BME280;15464;50.988;10.318;2023-04-23T11:51:45;98047.91;;;18.07;45.29
28181;BME280;15464;50.988;10.318;2023-04-23T11:54:12;98039.44;;;18.58;45.67
28181;BME280;15464;50.988;10.318;2023-04-23T11:56:40;98043.72;;;18.45;44.93
28181;BME280;15464;50.988;10.318;2023-04-23T11:59:07;98045.94;;;18.22;47.33
28181;BME280;15464;50.988;10.318;2023-04-23T12:01:44;98041.00;;;18.32;46.82
28181;BME280;15464;50.988;10.318;2023-04-23T12:04:17;98036.00;;;18.16;47.58
28181;BME280;15464;50.988;10.318;2023-04-23T12:06:45;98037.38;;;18.60;48.17
28181;BME280;15464;50.988;10.318;2023-04-23T12:09:13;98027.69;;;19.51;44.97
28181;BME280;15464;50.988;10.318;2023-04-23T12:11:41;98026.06;;;19.10;45.89
28181;BME280;15464;50.988;10.318;2023-04-23T12:14:09;98020.88;;;19.02;45.46
28181;BME280;15464;50.988;10.318;2023-04-23T12:16:42;98013.22;;;18.99;46.06
28181;BME280;15464;50.988;10.318;2023-04-23T12:19:14;98008.47;;;19.14;46.29
28181;BME280;15464;50.988;10.318;2023-04-23T12:24:50;98004.94;;;19.53;44.28
28181;BME280;15464;50.988;10.318;2023-04-23T12:27:19;98004.72;;;19.28;43.31
28181;BME280;15464;50.988;10.318;2023-04-23T12:29:47;98000.19;;;19.36;42.97
28181;BME280;15464;50.988;10.318;2023-04-23T12:32:16;98013.22;;;18.99;43.33
28181;BME280;15464;50.988;10.318;2023-04-23T12:34:53;98014.69;;;19.08;45.27
28181;BME280;15464;50.988;10.318;2023-04-23T12:37:24;98006.41;;;19.23;42.73
28181;BME280;15464;50.988;10.318;2023-04-23T12:39:52;97999.75;;;19.19;45.51
28181;BME280;15464;50.988;10.318;2023-04-23T12:42:21;98004.13;;;19.07;44.72
28181;BME280;15464;50.988;10.318;2023-04-23T12:44:48;98004.13;;;19.20;45.12
28181;BME280;15464;50.988;10.318;2023-04-23T12:47:17;98001.66;;;18.92;46.01
28181;BME280;15464;50.988;10.318;2023-04-23T12:49:48;98000.19;;;18.76;43.13
28181;BME280;15464;50.988;10.318;2023-04-23T12:52:18;98007.22;;;18.64;43.96
28181;BME280;15464;50.988;10.318;2023-04-23T12:54:45;98006.00;;;18.80;44.11
28181;BME280;15464;50.988;10.318;2023-04-23T12:57:12;97995.66;;;18.90;44.05
28181;BME280;15464;50.988;10.318;2023-04-23T12:59:44;97984.47;;;18.93;44.71
28181;BME280;15464;50.988;10.318;2023-04-23T13:02:11;97979.72;;;19.08;43.48
28181;BME280;15464;50.988;10.318;2023-04-23T13:04:38;97981.94;;;19.57;45.87